sensor_id;sensor_type;location;lat;lon;timestamp;P1;durP1;ratioP1;P2;durP2;ratioP2
46777;SDS011;32536;47.128;8.746;2022-07-11T00:02:03;3.55;;;1.23;;
46777;SDS011;32536;47.128;8.746;2022-07-11T00:04:31;2.88;;;1.40;;
46777;SDS011;32536;47.128;8.746;2022-07-11T00:06:59;2.45;;;1.05;;
46777;SDS011;32536;47.128;8.746;2022-07-11T00:09:28;2.63;;;1.30;;
46777;SDS011;32536;47.128;8.746;2022-07-11T00:11:56;3.40;;;1.48;;
46777;SDS011;32536;47.128;8.746;2022-07-11T00:14:24;2.42;;;1.17;;
46777;SDS011;32536;47.128;8.746;2022-07-11T00:16:52;2.45;;;0.88;;
46777;SDS011;32536;47.128;8.746;2022-07-11T00:19:19;2.83;;;1.55;;
46777;SDS011;32536;47.128;8.746;2022-07-11T00:21:47;2.78;;;1.42;;
46777;SDS011;32536;47.128;8.746;2022-07-11T00:24:15;2.80;;;1.48;;
46777;SDS011;32536;47.128;8.746;2022-07-11T00:26:45;3.10;;;1.45;;
46777;SDS011;32536;47.128;8.746;2022-07-11T00:29:13;3.25;;;1.52;;
46777;SDS011;32536;47.128;8.746;2022-07-11T00:31:40;3.25;;;1.30;;
46777;SDS011;32536;47.128;8.746;2022-07-11T00:34:08;2.65;;;1.25;;
46777;SDS011;32536;47.128;8.746;2022-07-11T00:36:34;2.33;;;1.10;;
46777;SDS011;32536;47.128;8.746;2022-07-11T00:39:02;2.15;;;1.05;;
46777;SDS011;32536;47.128;8.746;2022-07-11T00:41:29;3.10;;;1.35;;
46777;SDS011;32536;47.128;8.746;2022-07-11T00:43:57;3.00;;;1.17;;
46777;SDS011;32536;47.128;8.746;2022-07-11T00:46:26;3.10;;;1.40;;
46777;SDS011;32536;47.128;8.746;2022-07-11T00:48:54;2.60;;;1.45;;
46777;SDS011;32536;47.128;8.746;2022-07-11T00:51:22;2.10;;;1.15;;
46777;SDS011;32536;47.128;8.746;2022-07-11T00:53:51;4.82;;;1.50;;
46777;SDS011;32536;47.128;8.746;2022-07-11T00:56:20;3.40;;;1.25;;
46777;SDS011;32536;47.128;8.746;2022-07-11T00:58:52;3.03;;;1.63;;
46777;SDS011;32536;47.128;8.746;2022-07-11T01:01:20;3.20;;;1.58;;
46777;SDS011;32536;47.128;8.746;2022-07-11T01:03:48;2.88;;;1.60;;
46777;SDS011;32536;47.128;8.746;2022-07-11T01:06:16;2.63;;;1.35;;
46777;SDS011;32536;47.128;8.746;2022-07-11T01:08:43;2.63;;;1.35;;
46777;SDS011;32536;47.128;8.746;2022-07-11T01:11:11;4.93;;;1.27;;
46777;SDS011;32536;47.128;8.746;2022-07-11T01:13:42;3.55;;;1.60;;
46777;SDS011;32536;47.128;8.746;2022-07-11T01:16:10;2.60;;;1.42;;
46777;SDS011;32536;47.128;8.746;2022-07-11T01:18:48;3.05;;;1.45;;
46777;SDS011;32536;47.128;8.746;2022-07-11T01:21:29;2.60;;;0.93;;
46777;SDS011;32536;47.128;8.746;2022-07-11T01:24:06;2.72;;;1.48;;
46777;SDS011;32536;47.128;8.746;2022-07-11T01:26:34;2.75;;;1.15;;
46777;SDS011;32536;47.128;8.746;2022-07-11T01:29:12;3.10;;;1.50;;
46777;SDS011;32536;47.128;8.746;2022-07-11T01:31:40;3.50;;;1.48;;
46777;SDS011;32536;47.128;8.746;2022-07-11T01:34:09;3.15;;;1.45;;
46777;SDS011;32536;47.128;8.746;2022-07-11T01:36:37;2.40;;;1.20;;
46777;SDS011;32536;47.128;8.746;2022-07-11T01:39:05;2.22;;;1.42;;
46777;SDS011;32536;47.128;8.746;2022-07-11T01:41:32;2.40;;;1.30;;
46777;SDS011;32536;47.128;8.746;2022-07-11T01:43:58;2.42;;;1.35;;
46777;SDS011;32536;47.128;8.746;2022-07-11T01:46:25;2.67;;;1.63;;
46777;SDS011;32536;47.128;8.746;2022-07-11T01:48:52;3.05;;;1.50;;
46777;SDS011;32536;47.128;8.746;2022-07-11T01:51:19;2.83;;;1.55;;
46777;SDS011;32536;47.128;8.746;2022-07-11T01:53:46;2.80;;;1.50;;
46777;SDS011;32536;47.128;8.746;2022-07-11T01:56:12;2.60;;;1.25;;
46777;SDS011;32536;47.128;8.746;2022-07-11T01:58:39;2.42;;;1.15;;
46777;SDS011;32536;47.128;8.746;2022-07-11T02:01:06;2.55;;;0.98;;
46777;SDS011;32536;47.128;8.746;2022-07-11T02:03:33;3.67;;;1.67;;
46777;SDS011;32536;47.128;8.746;2022-07-11T02:06:00;4.38;;;2.60;;
46777;SDS011;32536;47.128;8.746;2022-07-11T02:08:27;3.45;;;1.77;;
46777;SDS011;32536;47.128;8.746;2022-07-11T02:10:53;2.97;;;1.20;;
46777;SDS011;32536;47.128;8.746;2022-07-11T02:13:21;2.10;;;0.80;;
46777;SDS011;32536;47.128;8.746;2022-07-11T02:15:49;3.40;;;1.75;;
46777;SDS011;32536;47.128;8.746;2022-07-11T02:18:19;4.25;;;1.88;;
46777;SDS011;32536;47.128;8.746;2022-07-11T02:20:46;3.65;;;1.90;;
46777;SDS011;32536;47.128;8.746;2022-07-11T02:23:17;3.80;;;1.80;;
46777;SDS011;32536;47.128;8.746;2022-07-11T02:25:45;3.28;;;1.73;;
46777;SDS011;32536;47.128;8.746;2022-07-11T02:28:20;2.47;;;1.35;;
46777;SDS011;32536;47.128;8.746;2022-07-11T02:30:46;1.92;;;0.90;;
46777;SDS011;32536;47.128;8.746;2022-07-11T02:33:13;2.95;;;0.82;;
46777;SDS011;32536;47.128;8.746;2022-07-11T02:35:41;2.63;;;2.25;;
46777;SDS011;32536;47.128;8.746;2022-07-11T02:38:12;2.00;;;1.13;;
46777;SDS011;32536;47.128;8.746;2022-07-11T02:40:40;3.30;;;1.35;;
46777;SDS011;32536;47.128;8.746;2022-07-11T02:43:07;2.35;;;1.00;;
46777;SDS011;32536;47.128;8.746;2022-07-11T02:45:34;1.80;;;1.00;;
46777;SDS011;32536;47.128;8.746;2022-07-11T02:48:01;2.60;;;0.98;;
46777;SDS011;32536;47.128;8.746;2022-07-11T02:50:28;2.20;;;0.75;;
46777;SDS011;32536;47.128;8.746;2022-07-11T02:52:55;1.60;;;0.82;;
46777;SDS011;32536;47.128;8.746;2022-07-11T02:55:22;1.25;;;0.80;;
46777;SDS011;32536;47.128;8.746;2022-07-11T02:57:49;1.40;;;0.88;;
46777;SDS011;32536;47.128;8.746;2022-07-11T03:00:16;1.85;;;0.95;;
46777;SDS011;32536;47.128;8.746;2022-07-11T03:02:44;2.47;;;1.10;;
46777;SDS011;32536;47.128;8.746;2022-07-11T03:05:11;1.83;;;1.05;;
46777;SDS011;32536;47.128;8.746;2022-07-11T03:07:38;1.75;;;0.90;;
46777;SDS011;32536;47.128;8.746;2022-07-11T03:10:05;2.50;;;1.23;;
46777;SDS011;32536;47.128;8.746;2022-07-11T03:12:32;2.65;;;1.63;;
46777;SDS011;32536;47.128;8.746;2022-07-11T03:14:59;2.97;;;1.23;;
46777;SDS011;32536;47.128;8.746;2022-07-11T03:17:26;3.50;;;1.30;;
46777;SDS011;32536;47.128;8.746;2022-07-11T03:19:53;2.40;;;1.08;;
46777;SDS011;32536;47.128;8.746;2022-07-11T03:22:20;3.20;;;1.70;;
46777;SDS011;32536;47.128;8.746;2022-07-11T03:24:48;4.45;;;1.75;;
46777;SDS011;32536;47.128;8.746;2022-07-11T03:27:18;3.63;;;1.52;;
46777;SDS011;32536;47.128;8.746;2022-07-11T03:29:46;3.60;;;1.30;;
46777;SDS011;32536;47.128;8.746;2022-07-11T03:32:13;4.63;;;1.65;;
46777;SDS011;32536;47.128;8.746;2022-07-11T03:34:40;2.80;;;1.42;;
46777;SDS011;32536;47.128;8.746;2022-07-11T03:37:27;3.25;;;1.85;;
46777;SDS011;32536;47.128;8.746;2022-07-11T03:39:54;3.22;;;1.30;;
46777;SDS011;32536;47.128;8.746;2022-07-11T03:42:20;3.78;;;1.33;;
46777;SDS011;32536;47.128;8.746;2022-07-11T03:44:47;2.85;;;1.08;;
46777;SDS011;32536;47.128;8.746;2022-07-11T03:47:14;2.65;;;1.10;;
46777;SDS011;32536;47.128;8.746;2022-07-11T03:49:41;2.55;;;1.30;;
46777;SDS011;32536;47.128;8.746;2022-07-11T03:52:08;3.45;;;1.20;;
46777;SDS011;32536;47.128;8.746;2022-07-11T03:54:34;3.33;;;1.75;;
46777;SDS011;32536;47.128;8.746;2022-07-11T03:57:01;2.58;;;1.55;;
46777;SDS011;32536;47.128;8.746;2022-07-11T03:59:28;3.20;;;1.77;;
46777;SDS011;32536;47.128;8.746;2022-07-11T04:01:55;2.78;;;1.50;;
46777;SDS011;32536;47.128;8.746;2022-07-11T04:04:21;3.97;;;1.80;;
46777;SDS011;32536;47.128;8.746;2022-07-11T04:06:48;3.20;;;1.67;;
46777;SDS011;32536;47.128;8.746;2022-07-11T04:09:15;4.15;;;1.48;;
46777;SDS011;32536;47.128;8.746;2022-07-11T04:11:42;2.83;;;1.35;;
46777;SDS011;32536;47.128;8.746;2022-07-11T04:14:08;2.42;;;1.23;;
46777;SDS011;32536;47.128;8.746;2022-07-11T04:16:35;2.13;;;1.30;;
46777;SDS011;32536;47.128;8.746;2022-07-11T04:19:02;1.70;;;0.77;;
46777;SDS011;32536;47.128;8.746;2022-07-11T04:21:29;4.03;;;1.80;;
46777;SDS011;32536;47.128;8.746;2022-07-11T04:23:56;3.97;;;1.63;;
46777;SDS011;32536;47.128;8.746;2022-07-11T04:26:23;4.60;;;2.40;;
46777;SDS011;32536;47.128;8.746;2022-07-11T04:28:50;5.25;;;2.85;;
46777;SDS011;32536;47.128;8.746;2022-07-11T04:31:16;4.38;;;1.95;;
46777;SDS011;32536;47.128;8.746;2022-07-11T04:33:43;4.30;;;2.22;;
46777;SDS011;32536;47.128;8.746;2022-07-11T04:36:10;4.60;;;2.08;;
46777;SDS011;32536;47.128;8.746;2022-07-11T04:38:37;3.90;;;1.77;;
46777;SDS011;32536;47.128;8.746;2022-07-11T04:41:03;4.10;;;2.40;;
46777;SDS011;32536;47.128;8.746;2022-07-11T04:43:31;3.72;;;1.95;;
46777;SDS011;32536;47.128;8.746;2022-07-11T04:45:57;3.38;;;1.83;;
46777;SDS011;32536;47.128;8.746;2022-07-11T04:48:24;4.95;;;1.90;;
46777;SDS011;32536;47.128;8.746;2022-07-11T04:50:51;3.63;;;1.85;;
46777;SDS011;32536;47.128;8.746;2022-07-11T04:53:17;3.45;;;1.85;;
46777;SDS011;32536;47.128;8.746;2022-07-11T04:55:44;2.63;;;1.33;;
46777;SDS011;32536;47.128;8.746;2022-07-11T04:58:11;2.95;;;1.65;;
46777;SDS011;32536;47.128;8.746;2022-07-11T05:00:38;4.32;;;1.58;;
46777;SDS011;32536;47.128;8.746;2022-07-11T05:03:05;3.55;;;1.83;;
46777;SDS011;32536;47.128;8.746;2022-07-11T05:05:31;3.30;;;1.83;;
46777;SDS011;32536;47.128;8.746;2022-07-11T05:07:58;2.55;;;1.20;;
46777;SDS011;32536;47.128;8.746;2022-07-11T05:10:25;3.70;;;1.83;;
46777;SDS011;32536;47.128;8.746;2022-07-11T05:12:51;3.97;;;1.65;;
46777;SDS011;32536;47.128;8.746;2022-07-11T05:15:18;3.95;;;1.98;;
46777;SDS011;32536;47.128;8.746;2022-07-11T05:17:45;3.75;;;2.13;;
46777;SDS011;32536;47.128;8.746;2022-07-11T05:20:12;2.22;;;1.27;;
46777;SDS011;32536;47.128;8.746;2022-07-11T05:22:38;3.97;;;1.52;;
46777;SDS011;32536;47.128;8.746;2022-07-11T05:25:05;2.83;;;1.25;;
46777;SDS011;32536;47.128;8.746;2022-07-11T05:27:32;2.63;;;1.05;;
46777;SDS011;32536;47.128;8.746;2022-07-11T05:29:59;2.33;;;1.00;;
46777;SDS011;32536;47.128;8.746;2022-07-11T05:32:26;1.52;;;0.90;;
46777;SDS011;32536;47.128;8.746;2022-07-11T05:34:54;3.25;;;1.10;;
46777;SDS011;32536;47.128;8.746;2022-07-11T05:37:24;2.47;;;1.30;;
46777;SDS011;32536;47.128;8.746;2022-07-11T05:39:50;2.80;;;1.23;;
46777;SDS011;32536;47.128;8.746;2022-07-11T05:42:17;2.50;;;1.25;;
46777;SDS011;32536;47.128;8.746;2022-07-11T05:44:44;1.65;;;0.80;;
46777;SDS011;32536;47.128;8.746;2022-07-11T05:47:11;1.58;;;1.00;;
46777;SDS011;32536;47.128;8.746;2022-07-11T05:49:38;1.95;;;1.00;;
46777;SDS011;32536;47.128;8.746;2022-07-11T05:52:04;1.77;;;0.70;;
46777;SDS011;32536;47.128;8.746;2022-07-11T05:54:31;1.83;;;1.05;;
46777;SDS011;32536;47.128;8.746;2022-07-11T05:56:58;1.40;;;0.88;;
46777;SDS011;32536;47.128;8.746;2022-07-11T05:59:27;1.30;;;0.73;;
46777;SDS011;32536;47.128;8.746;2022-07-11T06:01:54;2.10;;;0.70;;
46777;SDS011;32536;47.128;8.746;2022-07-11T06:04:21;1.55;;;0.77;;
46777;SDS011;32536;47.128;8.746;2022-07-11T06:06:48;1.00;;;0.70;;
46777;SDS011;32536;47.128;8.746;2022-07-11T06:09:14;1.90;;;0.90;;
46777;SDS011;32536;47.128;8.746;2022-07-11T06:11:41;1.52;;;0.60;;
46777;SDS011;32536;47.128;8.746;2022-07-11T06:14:08;1.95;;;0.75;;
46777;SDS011;32536;47.128;8.746;2022-07-11T06:16:35;2.10;;;0.82;;
46777;SDS011;32536;47.128;8.746;2022-07-11T06:19:02;1.38;;;0.73;;
46777;SDS011;32536;47.128;8.746;2022-07-11T06:21:29;2.08;;;0.90;;
46777;SDS011;32536;47.128;8.746;2022-07-11T06:23:56;1.45;;;0.70;;
46777;SDS011;32536;47.128;8.746;2022-07-11T06:26:23;1.88;;;1.00;;
46777;SDS011;32536;47.128;8.746;2022-07-11T06:28:49;2.47;;;0.85;;
46777;SDS011;32536;47.128;8.746;2022-07-11T06:31:16;1.63;;;0.90;;
46777;SDS011;32536;47.128;8.746;2022-07-11T06:33:43;1.27;;;0.75;;
46777;SDS011;32536;47.128;8.746;2022-07-11T06:36:10;1.92;;;0.93;;
46777;SDS011;32536;47.128;8.746;2022-07-11T06:38:37;1.70;;;0.95;;
46777;SDS011;32536;47.128;8.746;2022-07-11T06:43:49;3.17;;;1.38;;
46777;SDS011;32536;47.128;8.746;2022-07-11T06:46:17;2.10;;;0.98;;
46777;SDS011;32536;47.128;8.746;2022-07-11T06:48:44;1.98;;;1.05;;
46777;SDS011;32536;47.128;8.746;2022-07-11T06:51:11;2.10;;;0.98;;
46777;SDS011;32536;47.128;8.746;2022-07-11T06:53:37;1.25;;;0.65;;
46777;SDS011;32536;47.128;8.746;2022-07-11T06:56:04;2.45;;;0.73;;
46777;SDS011;32536;47.128;8.746;2022-07-11T06:58:31;1.88;;;0.90;;
46777;SDS011;32536;47.128;8.746;2022-07-11T07:00:59;1.42;;;0.90;;
46777;SDS011;32536;47.128;8.746;2022-07-11T07:03:28;1.60;;;0.70;;
46777;SDS011;32536;47.128;8.746;2022-07-11T07:05:56;1.90;;;1.00;;
46777;SDS011;32536;47.128;8.746;2022-07-11T07:08:27;1.55;;;0.70;;
46777;SDS011;32536;47.128;8.746;2022-07-11T07:10:55;1.10;;;0.70;;
46777;SDS011;32536;47.128;8.746;2022-07-11T07:13:22;1.52;;;0.80;;
46777;SDS011;32536;47.128;8.746;2022-07-11T07:15:51;1.45;;;0.80;;
46777;SDS011;32536;47.128;8.746;2022-07-11T07:18:19;1.27;;;0.70;;
46777;SDS011;32536;47.128;8.746;2022-07-11T07:20:46;1.77;;;0.88;;
46777;SDS011;32536;47.128;8.746;2022-07-11T07:23:13;1.30;;;0.65;;
46777;SDS011;32536;47.128;8.746;2022-07-11T07:25:40;1.35;;;0.85;;
46777;SDS011;32536;47.128;8.746;2022-07-11T07:31:05;1.30;;;0.80;;
46777;SDS011;32536;47.128;8.746;2022-07-11T07:33:32;1.40;;;0.75;;
46777;SDS011;32536;47.128;8.746;2022-07-11T07:35:59;1.80;;;0.90;;
46777;SDS011;32536;47.128;8.746;2022-07-11T07:38:26;2.55;;;1.13;;
46777;SDS011;32536;47.128;8.746;2022-07-11T07:40:53;1.50;;;0.70;;
46777;SDS011;32536;47.128;8.746;2022-07-11T07:43:20;1.85;;;1.00;;
46777;SDS011;32536;47.128;8.746;2022-07-11T07:45:46;1.75;;;0.95;;
46777;SDS011;32536;47.128;8.746;2022-07-11T07:48:13;1.67;;;0.80;;
46777;SDS011;32536;47.128;8.746;2022-07-11T07:50:40;1.52;;;0.90;;
46777;SDS011;32536;47.128;8.746;2022-07-11T07:53:07;1.58;;;0.80;;
46777;SDS011;32536;47.128;8.746;2022-07-11T07:55:35;1.45;;;0.68;;
46777;SDS011;32536;47.128;8.746;2022-07-11T07:58:02;2.42;;;0.90;;
46777;SDS011;32536;47.128;8.746;2022-07-11T08:00:28;1.65;;;0.90;;
46777;SDS011;32536;47.128;8.746;2022-07-11T08:03:14;1.98;;;0.85;;
46777;SDS011;32536;47.128;8.746;2022-07-11T08:05:40;1.23;;;0.60;;
46777;SDS011;32536;47.128;8.746;2022-07-11T08:08:07;1.98;;;1.13;;
46777;SDS011;32536;47.128;8.746;2022-07-11T08:10:34;1.65;;;0.75;;
46777;SDS011;32536;47.128;8.746;2022-07-11T08:13:02;2.85;;;0.90;;
46777;SDS011;32536;47.128;8.746;2022-07-11T08:15:29;1.30;;;0.80;;
46777;SDS011;32536;47.128;8.746;2022-07-11T08:17:56;1.70;;;0.70;;
46777;SDS011;32536;47.128;8.746;2022-07-11T08:20:22;2.55;;;1.00;;
46777;SDS011;32536;47.128;8.746;2022-07-11T08:22:49;1.40;;;0.80;;
46777;SDS011;32536;47.128;8.746;2022-07-11T08:25:16;2.22;;;0.98;;
46777;SDS011;32536;47.128;8.746;2022-07-11T08:27:43;2.92;;;1.10;;
46777;SDS011;32536;47.128;8.746;2022-07-11T08:30:10;1.85;;;1.02;;
46777;SDS011;32536;47.128;8.746;2022-07-11T08:32:37;1.90;;;1.05;;
46777;SDS011;32536;47.128;8.746;2022-07-11T08:35:07;1.70;;;0.80;;
46777;SDS011;32536;47.128;8.746;2022-07-11T08:37:34;1.52;;;0.82;;
46777;SDS011;32536;47.128;8.746;2022-07-11T08:40:02;1.42;;;0.80;;
46777;SDS011;32536;47.128;8.746;2022-07-11T08:42:29;2.42;;;1.13;;
46777;SDS011;32536;47.128;8.746;2022-07-11T08:44:57;2.35;;;0.90;;
46777;SDS011;32536;47.128;8.746;2022-07-11T08:47:24;1.73;;;0.88;;
46777;SDS011;32536;47.128;8.746;2022-07-11T08:49:52;2.30;;;1.10;;
46777;SDS011;32536;47.128;8.746;2022-07-11T08:52:18;2.20;;;0.93;;
46777;SDS011;32536;47.128;8.746;2022-07-11T08:54:47;2.35;;;1.02;;
46777;SDS011;32536;47.128;8.746;2022-07-11T08:57:13;2.10;;;0.95;;
46777;SDS011;32536;47.128;8.746;2022-07-11T08:59:41;2.40;;;0.82;;
46777;SDS011;32536;47.128;8.746;2022-07-11T09:02:09;2.88;;;1.08;;
46777;SDS011;32536;47.128;8.746;2022-07-11T09:04:36;2.05;;;1.08;;
46777;SDS011;32536;47.128;8.746;2022-07-11T09:07:03;3.25;;;1.13;;
46777;SDS011;32536;47.128;8.746;2022-07-11T09:09:31;1.60;;;0.77;;
46777;SDS011;32536;47.128;8.746;2022-07-11T09:11:58;2.22;;;1.08;;
46777;SDS011;32536;47.128;8.746;2022-07-11T09:14:29;1.70;;;0.90;;
46777;SDS011;32536;47.128;8.746;2022-07-11T09:16:58;1.48;;;0.80;;
46777;SDS011;32536;47.128;8.746;2022-07-11T09:19:27;1.90;;;0.98;;
46777;SDS011;32536;47.128;8.746;2022-07-11T09:33:01;3.67;;;1.30;;
46777;SDS011;32536;47.128;8.746;2022-07-11T09:35:39;3.25;;;1.30;;
46777;SDS011;32536;47.128;8.746;2022-07-11T09:38:14;2.60;;;1.08;;
46777;SDS011;32536;47.128;8.746;2022-07-11T09:40:43;2.20;;;1.00;;
46777;SDS011;32536;47.128;8.746;2022-07-11T09:43:12;2.13;;;0.80;;
46777;SDS011;32536;47.128;8.746;2022-07-11T09:45:39;2.10;;;1.00;;
46777;SDS011;32536;47.128;8.746;2022-07-11T09:48:10;2.60;;;1.13;;
46777;SDS011;32536;47.128;8.746;2022-07-11T09:50:40;1.92;;;0.75;;
46777;SDS011;32536;47.128;8.746;2022-07-11T09:53:21;2.88;;;1.10;;
46777;SDS011;32536;47.128;8.746;2022-07-11T09:55:48;2.17;;;1.20;;
46777;SDS011;32536;47.128;8.746;2022-07-11T09:58:16;1.90;;;1.00;;
46777;SDS011;32536;47.128;8.746;2022-07-11T10:00:44;2.33;;;0.95;;
46777;SDS011;32536;47.128;8.746;2022-07-11T10:03:12;2.22;;;0.80;;
46777;SDS011;32536;47.128;8.746;2022-07-11T10:05:39;3.13;;;0.98;;
46777;SDS011;32536;47.128;8.746;2022-07-11T10:08:06;4.10;;;1.52;;
46777;SDS011;32536;47.128;8.746;2022-07-11T10:10:33;3.42;;;1.83;;
46777;SDS011;32536;47.128;8.746;2022-07-11T10:13:00;2.85;;;1.20;;
46777;SDS011;32536;47.128;8.746;2022-07-11T10:15:31;2.95;;;1.40;;
46777;SDS011;32536;47.128;8.746;2022-07-11T10:18:15;3.10;;;1.17;;
46777;SDS011;32536;47.128;8.746;2022-07-11T10:23:41;3.58;;;1.92;;
46777;SDS011;32536;47.128;8.746;2022-07-11T10:26:38;3.03;;;1.40;;
46777;SDS011;32536;47.128;8.746;2022-07-11T10:29:29;2.83;;;1.23;;
46777;SDS011;32536;47.128;8.746;2022-07-11T10:32:16;2.60;;;1.55;;
46777;SDS011;32536;47.128;8.746;2022-07-11T10:34:44;3.85;;;1.27;;
46777;SDS011;32536;47.128;8.746;2022-07-11T10:37:13;3.35;;;1.25;;
46777;SDS011;32536;47.128;8.746;2022-07-11T10:39:56;2.55;;;1.20;;
46777;SDS011;32536;47.128;8.746;2022-07-11T10:42:26;2.30;;;1.10;;
46777;SDS011;32536;47.128;8.746;2022-07-11T10:45:09;1.75;;;0.95;;
46777;SDS011;32536;47.128;8.746;2022-07-11T10:47:41;1.73;;;0.80;;
46777;SDS011;32536;47.128;8.746;2022-07-11T10:50:31;1.65;;;0.68;;
46777;SDS011;32536;47.128;8.746;2022-07-11T10:53:06;1.83;;;0.80;;
46777;SDS011;32536;47.128;8.746;2022-07-11T10:58:56;2.30;;;0.82;;
46777;SDS011;32536;47.128;8.746;2022-07-11T11:04:41;2.30;;;1.15;;
46777;SDS011;32536;47.128;8.746;2022-07-11T11:15:45;3.03;;;1.00;;
46777;SDS011;32536;47.128;8.746;2022-07-11T11:23:31;2.30;;;1.15;;
46777;SDS011;32536;47.128;8.746;2022-07-11T11:28:59;3.10;;;1.70;;
46777;SDS011;32536;47.128;8.746;2022-07-11T11:31:31;3.45;;;1.23;;
46777;SDS011;32536;47.128;8.746;2022-07-11T11:34:00;2.22;;;1.08;;
46777;SDS011;32536;47.128;8.746;2022-07-11T11:36:29;1.80;;;0.80;;
46777;SDS011;32536;47.128;8.746;2022-07-11T11:38:56;2.55;;;1.13;;
46777;SDS011;32536;47.128;8.746;2022-07-11T11:41:27;1.83;;;0.77;;
46777;SDS011;32536;47.128;8.746;2022-07-11T11:43:56;5.43;;;1.55;;
46777;SDS011;32536;47.128;8.746;2022-07-11T11:46:26;2.58;;;1.10;;
46777;SDS011;32536;47.128;8.746;2022-07-11T11:48:56;2.80;;;1.08;;
46777;SDS011;32536;47.128;8.746;2022-07-11T11:51:27;2.53;;;1.10;;
46777;SDS011;32536;47.128;8.746;2022-07-11T11:53:56;2.30;;;0.70;;
46777;SDS011;32536;47.128;8.746;2022-07-11T11:58:56;2.17;;;0.80;;
46777;SDS011;32536;47.128;8.746;2022-07-11T12:01:27;1.85;;;1.10;;
46777;SDS011;32536;47.128;8.746;2022-07-11T12:06:33;1.83;;;0.73;;
46777;SDS011;32536;47.128;8.746;2022-07-11T12:11:35;2.22;;;1.05;;
46777;SDS011;32536;47.128;8.746;2022-07-11T12:14:04;2.45;;;0.90;;
46777;SDS011;32536;47.128;8.746;2022-07-11T12:16:34;1.92;;;0.77;;
46777;SDS011;32536;47.128;8.746;2022-07-11T12:19:32;2.17;;;0.88;;
46777;SDS011;32536;47.128;8.746;2022-07-11T12:22:03;3.67;;;1.35;;
46777;SDS011;32536;47.128;8.746;2022-07-11T12:24:31;2.97;;;1.30;;
46777;SDS011;32536;47.128;8.746;2022-07-11T12:26:58;2.67;;;1.23;;
46777;SDS011;32536;47.128;8.746;2022-07-11T12:29:26;2.53;;;1.20;;
46777;SDS011;32536;47.128;8.746;2022-07-11T12:37:03;2.30;;;1.00;;
46777;SDS011;32536;47.128;8.746;2022-07-11T12:39:32;1.58;;;0.82;;
46777;SDS011;32536;47.128;8.746;2022-07-11T12:42:24;1.98;;;1.25;;
46777;SDS011;32536;47.128;8.746;2022-07-11T12:45:06;2.53;;;0.95;;
46777;SDS011;32536;47.128;8.746;2022-07-11T12:47:43;2.30;;;0.98;;
46777;SDS011;32536;47.128;8.746;2022-07-11T12:52:54;1.67;;;0.80;;
46777;SDS011;32536;47.128;8.746;2022-07-11T13:00:58;2.60;;;0.88;;
46777;SDS011;32536;47.128;8.746;2022-07-11T13:03:29;2.60;;;1.13;;
46777;SDS011;32536;47.128;8.746;2022-07-11T13:06:01;3.08;;;1.20;;
46777;SDS011;32536;47.128;8.746;2022-07-11T13:08:33;2.40;;;0.93;;
46777;SDS011;32536;47.128;8.746;2022-07-11T13:11:09;2.15;;;1.20;;
46777;SDS011;32536;47.128;8.746;2022-07-11T13:13:43;2.30;;;1.17;;
46777;SDS011;32536;47.128;8.746;2022-07-11T13:16:13;3.65;;;1.13;;
46777;SDS011;32536;47.128;8.746;2022-07-11T13:18:41;2.08;;;1.05;;
46777;SDS011;32536;47.128;8.746;2022-07-11T13:21:08;3.17;;;1.15;;
46777;SDS011;32536;47.128;8.746;2022-07-11T13:23:35;2.30;;;1.02;;
46777;SDS011;32536;47.128;8.746;2022-07-11T13:26:03;2.03;;;0.90;;
46777;SDS011;32536;47.128;8.746;2022-07-11T13:31:27;2.05;;;0.75;;
46777;SDS011;32536;47.128;8.746;2022-07-11T13:33:53;2.10;;;1.45;;
46777;SDS011;32536;47.128;8.746;2022-07-11T13:36:22;1.20;;;0.57;;
46777;SDS011;32536;47.128;8.746;2022-07-11T13:38:48;2.78;;;1.30;;
46777;SDS011;32536;47.128;8.746;2022-07-11T13:41:15;1.88;;;0.65;;
46777;SDS011;32536;47.128;8.746;2022-07-11T13:43:42;1.52;;;0.82;;
46777;SDS011;32536;47.128;8.746;2022-07-11T13:46:10;1.73;;;0.82;;
46777;SDS011;32536;47.128;8.746;2022-07-11T13:48:37;1.88;;;0.95;;
46777;SDS011;32536;47.128;8.746;2022-07-11T13:51:07;1.50;;;0.77;;
46777;SDS011;32536;47.128;8.746;2022-07-11T13:53:34;1.45;;;0.82;;
46777;SDS011;32536;47.128;8.746;2022-07-11T13:56:04;2.33;;;0.80;;
46777;SDS011;32536;47.128;8.746;2022-07-11T13:58:31;2.72;;;1.13;;
46777;SDS011;32536;47.128;8.746;2022-07-11T14:00:58;3.85;;;1.20;;
46777;SDS011;32536;47.128;8.746;2022-07-11T14:03:26;2.05;;;0.80;;
46777;SDS011;32536;47.128;8.746;2022-07-11T14:05:53;1.60;;;0.70;;
46777;SDS011;32536;47.128;8.746;2022-07-11T14:08:20;2.97;;;1.67;;
46777;SDS011;32536;47.128;8.746;2022-07-11T14:10:47;2.28;;;1.27;;
46777;SDS011;32536;47.128;8.746;2022-07-11T14:13:14;2.97;;;1.48;;
46777;SDS011;32536;47.128;8.746;2022-07-11T14:15:41;2.03;;;1.42;;
46777;SDS011;32536;47.128;8.746;2022-07-11T14:18:08;1.83;;;0.93;;
46777;SDS011;32536;47.128;8.746;2022-07-11T14:20:35;1.65;;;0.77;;
46777;SDS011;32536;47.128;8.746;2022-07-11T14:23:01;1.52;;;0.63;;
46777;SDS011;32536;47.128;8.746;2022-07-11T14:25:28;1.92;;;1.10;;
46777;SDS011;32536;47.128;8.746;2022-07-11T14:27:55;1.63;;;0.65;;
46777;SDS011;32536;47.128;8.746;2022-07-11T14:30:22;1.20;;;0.57;;
46777;SDS011;32536;47.128;8.746;2022-07-11T14:32:49;2.85;;;1.00;;
46777;SDS011;32536;47.128;8.746;2022-07-11T14:35:16;2.13;;;0.85;;
46777;SDS011;32536;47.128;8.746;2022-07-11T14:37:43;2.10;;;0.80;;
46777;SDS011;32536;47.128;8.746;2022-07-11T14:40:10;2.72;;;0.88;;
46777;SDS011;32536;47.128;8.746;2022-07-11T14:42:37;1.25;;;0.63;;
46777;SDS011;32536;47.128;8.746;2022-07-11T14:45:04;2.05;;;1.42;;
46777;SDS011;32536;47.128;8.746;2022-07-11T14:47:32;2.03;;;1.35;;
46777;SDS011;32536;47.128;8.746;2022-07-11T14:50:00;1.88;;;0.70;;
46777;SDS011;32536;47.128;8.746;2022-07-11T14:52:28;1.20;;;0.60;;
46777;SDS011;32536;47.128;8.746;2022-07-11T14:54:55;1.40;;;0.93;;
46777;SDS011;32536;47.128;8.746;2022-07-11T14:57:22;1.88;;;1.00;;
46777;SDS011;32536;47.128;8.746;2022-07-11T14:59:49;2.92;;;0.80;;
46777;SDS011;32536;47.128;8.746;2022-07-11T15:02:16;1.95;;;0.82;;
46777;SDS011;32536;47.128;8.746;2022-07-11T15:05:03;1.70;;;1.02;;
46777;SDS011;32536;47.128;8.746;2022-07-11T15:07:30;3.00;;;0.73;;
46777;SDS011;32536;47.128;8.746;2022-07-11T15:10:16;1.27;;;0.73;;
46777;SDS011;32536;47.128;8.746;2022-07-11T15:13:01;1.77;;;0.73;;
46777;SDS011;32536;47.128;8.746;2022-07-11T15:15:27;2.65;;;1.95;;
46777;SDS011;32536;47.128;8.746;2022-07-11T15:17:55;3.22;;;0.68;;
46777;SDS011;32536;47.128;8.746;2022-07-11T15:20:40;1.75;;;0.73;;
46777;SDS011;32536;47.128;8.746;2022-07-11T15:23:07;1.50;;;0.60;;
46777;SDS011;32536;47.128;8.746;2022-07-11T15:25:34;1.48;;;0.75;;
46777;SDS011;32536;47.128;8.746;2022-07-11T15:28:01;1.77;;;1.08;;
46777;SDS011;32536;47.128;8.746;2022-07-11T15:30:28;1.73;;;0.77;;
46777;SDS011;32536;47.128;8.746;2022-07-11T15:32:55;2.00;;;0.57;;
46777;SDS011;32536;47.128;8.746;2022-07-11T15:35:22;1.90;;;0.95;;
46777;SDS011;32536;47.128;8.746;2022-07-11T15:37:48;2.22;;;1.33;;
46777;SDS011;32536;47.128;8.746;2022-07-11T15:40:15;1.30;;;0.60;;
46777;SDS011;32536;47.128;8.746;2022-07-11T15:42:42;1.50;;;0.55;;
46777;SDS011;32536;47.128;8.746;2022-07-11T15:45:09;1.88;;;0.90;;
46777;SDS011;32536;47.128;8.746;2022-07-11T15:47:37;1.95;;;0.82;;
46777;SDS011;32536;47.128;8.746;2022-07-11T15:50:05;1.83;;;1.17;;
46777;SDS011;32536;47.128;8.746;2022-07-11T15:52:33;1.92;;;0.60;;
46777;SDS011;32536;47.128;8.746;2022-07-11T15:55:00;1.63;;;0.90;;
46777;SDS011;32536;47.128;8.746;2022-07-11T15:57:27;2.65;;;1.27;;
46777;SDS011;32536;47.128;8.746;2022-07-11T15:59:54;1.33;;;0.60;;
46777;SDS011;32536;47.128;8.746;2022-07-11T16:02:21;2.72;;;0.82;;
46777;SDS011;32536;47.128;8.746;2022-07-11T16:04:48;1.77;;;1.10;;